createdAt,value
2023-11-07T00:01:30.846Z,11.70
2023-11-07T00:04:11.232Z,8.00
2023-11-07T00:06:43.613Z,16.40
2023-11-07T00:09:15.620Z,12.40
2023-11-07T00:11:48.098Z,11.60
2023-11-07T00:14:22.607Z,6.10
2023-11-07T00:16:54.756Z,13.00
2023-11-07T00:19:27.024Z,13.60
2023-11-07T00:21:59.671Z,14.10
2023-11-07T00:24:32.011Z,16.00
2023-11-07T00:27:05.222Z,13.10
2023-11-07T00:29:37.858Z,14.10
2023-11-07T00:32:10.528Z,13.20
2023-11-07T00:34:43.330Z,10.50
2023-11-07T00:37:15.420Z,9.90
2023-11-07T00:39:47.668Z,11.30
2023-11-07T00:42:19.799Z,9.80
2023-11-07T00:44:52.033Z,13.80
2023-11-07T00:47:24.016Z,9.20
2023-11-07T00:49:56.079Z,7.50
2023-11-07T00:52:28.622Z,8.80
2023-11-07T00:55:01.457Z,9.40
2023-11-07T00:57:33.519Z,5.80
2023-11-07T01:00:07.031Z,7.10
2023-11-07T01:02:39.421Z,6.40
2023-11-07T01:05:12.204Z,4.70
2023-11-07T01:07:44.638Z,8.30
2023-11-07T01:10:16.551Z,8.20
2023-11-07T01:12:48.600Z,10.30
2023-11-07T01:15:20.788Z,11.30
2023-11-07T01:17:53.226Z,13.10
2023-11-07T01:20:25.612Z,12.30
2023-11-07T01:22:57.913Z,10.30
2023-11-07T01:25:30.002Z,10.60
2023-11-07T01:28:02.192Z,6.30
2023-11-07T01:30:34.290Z,10.30
2023-11-07T01:33:06.716Z,19.90
2023-11-07T01:35:39.167Z,10.60
2023-11-07T01:38:11.485Z,17.70
2023-11-07T01:40:43.654Z,19.40
2023-11-07T01:43:17.300Z,8.50
2023-11-07T01:45:50.185Z,10.70
2023-11-07T01:48:27.345Z,17.30
2023-11-07T01:51:00.087Z,12.80
2023-11-07T01:53:32.896Z,12.70
2023-11-07T01:56:05.313Z,9.40
2023-11-07T01:58:37.952Z,11.10
2023-11-07T02:01:10.221Z,11.70
2023-11-07T02:03:42.504Z,9.30
2023-11-07T02:06:14.691Z,10.90
2023-11-07T02:08:46.884Z,6.90
2023-11-07T02:11:18.807Z,9.00
2023-11-07T02:13:51.917Z,12.90
2023-11-07T02:16:23.910Z,9.20
2023-11-07T02:18:57.438Z,4.90
2023-11-07T02:21:30.882Z,7.30
2023-11-07T02:24:03.851Z,9.50
2023-11-07T02:26:36.027Z,13.00
2023-11-07T02:29:08.225Z,13.90
2023-11-07T02:31:40.201Z,7.60
2023-11-07T02:34:12.376Z,13.00
2023-11-07T02:36:44.783Z,10.20
2023-11-07T02:39:16.955Z,13.60
2023-11-07T02:41:49.182Z,8.40
2023-11-07T02:44:21.725Z,9.20
2023-11-07T02:46:54.758Z,16.70
2023-11-07T02:49:26.876Z,6.60
2023-11-07T02:51:58.989Z,10.60
2023-11-07T02:54:31.118Z,12.60
2023-11-07T02:57:03.660Z,11.00
2023-11-07T02:59:35.723Z,12.90
2023-11-07T03:02:08.113Z,7.20
2023-11-07T03:04:40.759Z,8.10
2023-11-07T03:07:12.859Z,18.00
2023-11-07T03:09:45.233Z,12.00
2023-11-07T03:12:17.637Z,9.10
2023-11-07T03:14:50.020Z,10.80
2023-11-07T03:17:22.308Z,12.00
2023-11-07T03:19:54.702Z,14.10
2023-11-07T03:22:28.417Z,8.00
2023-11-07T03:25:00.412Z,14.00
2023-11-07T03:27:33.259Z,11.80
2023-11-07T03:30:07.088Z,11.00
2023-11-07T03:32:39.558Z,14.00
2023-11-07T03:35:12.292Z,11.60
2023-11-07T03:37:44.230Z,7.90
2023-11-07T03:40:17.114Z,12.10
2023-11-07T03:42:49.196Z,9.60
2023-11-07T03:45:21.120Z,8.60
2023-11-07T03:47:53.513Z,11.60
2023-11-07T03:50:25.603Z,6.60
2023-11-07T03:52:57.787Z,13.40
2023-11-07T03:55:29.889Z,7.70
2023-11-07T03:58:01.853Z,5.40
2023-11-07T04:00:33.944Z,10.60
2023-11-07T04:03:06.598Z,14.50
2023-11-07T04:05:39.179Z,8.40
2023-11-07T04:08:11.257Z,10.80
2023-11-07T04:10:43.596Z,9.30
2023-11-07T04:13:15.812Z,13.50
2023-11-07T04:15:47.782Z,11.60
2023-11-07T04:18:20.344Z,5.60
2023-11-07T04:20:53.444Z,11.10
2023-11-07T04:23:25.913Z,11.20
2023-11-07T04:25:59.625Z,10.90
2023-11-07T04:28:32.461Z,12.90
2023-11-07T04:31:04.736Z,11.80
2023-11-07T04:33:37.812Z,8.40
2023-11-07T04:36:12.069Z,5.10
2023-11-07T04:38:44.835Z,6.50
2023-11-07T04:41:18.121Z,9.00
2023-11-07T04:43:51.295Z,13.30
2023-11-07T04:46:23.507Z,6.30
2023-11-07T04:48:56.007Z,6.30
2023-11-07T04:51:28.159Z,7.60
2023-11-07T04:54:00.437Z,10.40
2023-11-07T04:56:34.021Z,14.10
2023-11-07T04:59:06.184Z,9.20
2023-11-07T05:01:38.206Z,6.60
2023-11-07T05:04:11.195Z,10.80
2023-11-07T05:06:44.109Z,6.60
2023-11-07T05:09:16.598Z,16.60
2023-11-07T05:11:48.540Z,13.40
2023-11-07T05:14:20.989Z,7.30
2023-11-07T05:16:52.962Z,4.10
2023-11-07T05:19:25.219Z,6.70
2023-11-07T05:21:57.542Z,15.00
2023-11-07T05:24:30.157Z,5.50
2023-11-07T05:27:02.295Z,5.20
2023-11-07T05:29:34.313Z,10.30
2023-11-07T05:32:07.589Z,11.30
2023-11-07T05:34:41.455Z,3.50
2023-11-07T05:37:13.983Z,2.40
2023-11-07T05:39:46.481Z,6.00
2023-11-07T05:42:18.515Z,4.90
2023-11-07T05:44:50.648Z,9.60
2023-11-07T05:47:23.383Z,4.00
2023-11-07T05:49:55.379Z,4.90
2023-11-07T05:52:28.345Z,2.80
2023-11-07T05:55:01.349Z,5.20
2023-11-07T05:57:33.964Z,5.10
2023-11-07T06:00:09.389Z,2.90
2023-11-07T06:02:44.432Z,6.50
2023-11-07T06:05:16.647Z,5.60
2023-11-07T06:07:49.734Z,5.50
2023-11-07T06:10:21.826Z,3.50
2023-11-07T06:12:54.865Z,7.60
2023-11-07T06:15:27.113Z,5.40
2023-11-07T06:17:59.466Z,11.00
2023-11-07T06:20:32.117Z,6.50
2023-11-07T06:23:04.954Z,5.90
2023-11-07T06:25:36.996Z,3.60
2023-11-07T06:28:13.864Z,5.40
2023-11-07T06:30:46.436Z,10.10
2023-11-07T06:33:18.757Z,9.70
2023-11-07T06:35:51.313Z,6.30
2023-11-07T06:38:26.788Z,6.60
2023-11-07T06:40:59.246Z,3.80
2023-11-07T06:43:31.306Z,8.00
2023-11-07T06:46:03.499Z,10.70
2023-11-07T06:48:35.837Z,7.70
2023-11-07T06:51:09.214Z,4.80
2023-11-07T06:53:41.650Z,4.40
2023-11-07T06:56:15.097Z,5.20
2023-11-07T06:58:48.173Z,6.60
2023-11-07T07:01:20.605Z,8.60
2023-11-07T07:03:54.383Z,7.00
2023-11-07T07:06:26.656Z,7.30
2023-11-07T07:08:59.001Z,5.30
2023-11-07T07:11:31.292Z,6.60
2023-11-07T07:14:03.809Z,5.10
2023-11-07T07:16:36.046Z,6.60
2023-11-07T07:19:08.657Z,4.20
2023-11-07T07:21:40.887Z,11.80
2023-11-07T07:24:22.483Z,5.70
2023-11-07T07:26:56.539Z,5.10
2023-11-07T07:29:28.819Z,6.20
2023-11-07T07:32:01.073Z,5.90
2023-11-07T07:34:34.017Z,5.20
2023-11-07T07:37:07.473Z,4.50
2023-11-07T07:39:39.532Z,5.70
2023-11-07T07:42:11.939Z,7.00
2023-11-07T07:44:44.116Z,6.00
2023-11-07T07:47:16.950Z,2.20
2023-11-07T07:49:49.251Z,2.00
2023-11-07T07:52:23.931Z,4.40
2023-11-07T07:57:43.086Z,5.00
2023-11-07T08:00:16.721Z,6.40
2023-11-07T08:02:49.094Z,13.50
2023-11-07T08:05:22.171Z,4.40
2023-11-07T08:07:54.672Z,9.50
2023-11-07T08:10:28.061Z,9.70
2023-11-07T08:13:00.061Z,7.30
2023-11-07T08:15:32.504Z,3.10
2023-11-07T08:18:07.754Z,9.30
2023-11-07T08:20:41.411Z,7.20
2023-11-07T08:23:13.612Z,3.00
2023-11-07T08:29:02.068Z,8.60
2023-11-07T08:31:34.593Z,2.90
2023-11-07T08:34:10.692Z,5.10
2023-11-07T08:36:52.152Z,2.80
2023-11-07T08:39:37.053Z,3.20
2023-11-07T08:42:10.017Z,6.50
2023-11-07T08:44:45.648Z,3.70
2023-11-07T08:47:19.385Z,5.30
2023-11-07T08:49:51.892Z,2.80
2023-11-07T08:52:24.157Z,3.30
2023-11-07T08:54:56.374Z,7.60
2023-11-07T08:57:30.007Z,4.80
2023-11-07T09:00:02.491Z,5.20
2023-11-07T09:02:34.834Z,6.00
2023-11-07T09:05:07.956Z,1.10
2023-11-07T09:07:40.759Z,5.70
2023-11-07T09:10:13.509Z,6.70
2023-11-07T09:12:45.967Z,6.50
2023-11-07T09:15:26.793Z,4.80
2023-11-07T09:18:00.531Z,3.20
2023-11-07T09:20:50.225Z,4.20
2023-11-07T09:23:23.686Z,4.50
2023-11-07T09:25:56.435Z,2.20
2023-11-07T09:28:29.031Z,3.70
2023-11-07T09:31:01.444Z,4.60
2023-11-07T09:33:33.499Z,10.50
2023-11-07T09:36:06.348Z,6.40
2023-11-07T09:38:49.346Z,4.90
2023-11-07T09:41:26.312Z,3.20
2023-11-07T09:43:58.774Z,2.40
2023-11-07T09:46:31.008Z,4.40
2023-11-07T09:49:04.156Z,4.40
2023-11-07T09:51:38.427Z,2.50
2023-11-07T09:54:11.267Z,4.40
2023-11-07T09:56:44.131Z,7.30
2023-11-07T09:59:22.236Z,3.40
2023-11-07T10:01:55.450Z,7.50
2023-11-07T10:04:30.257Z,2.10
2023-11-07T10:07:02.681Z,5.40
2023-11-07T10:09:35.207Z,7.80
2023-11-07T10:12:10.545Z,5.80
2023-11-07T10:14:42.959Z,3.20
2023-11-07T10:17:24.330Z,6.00
2023-11-07T10:20:12.900Z,2.70
2023-11-07T10:22:48.817Z,5.10
2023-11-07T10:25:35.250Z,9.80
2023-11-07T10:28:08.823Z,5.00
2023-11-07T10:30:47.055Z,11.60
2023-11-07T10:33:29.846Z,5.60
2023-11-07T10:36:04.299Z,6.90
2023-11-07T10:38:42.090Z,11.40
2023-11-07T10:41:29.593Z,5.50
2023-11-07T10:44:02.775Z,5.90
2023-11-07T10:46:34.828Z,4.90
2023-11-07T10:49:07.418Z,2.20
2023-11-07T10:51:39.610Z,6.00
2023-11-07T10:54:11.945Z,6.00
2023-11-07T10:56:46.075Z,6.40
2023-11-07T10:59:26.832Z,4.40
2023-11-07T11:02:01.680Z,14.10
2023-11-07T11:07:07.954Z,2.70
2023-11-07T11:09:42.930Z,4.00
2023-11-07T11:12:15.836Z,3.80
2023-11-07T11:14:48.699Z,3.40
2023-11-07T11:17:24.177Z,5.50
2023-11-07T11:19:59.960Z,3.50
2023-11-07T11:22:36.064Z,2.70
2023-11-07T11:25:19.229Z,3.70
2023-11-07T11:27:56.553Z,4.90
2023-11-07T11:30:33.099Z,5.20
2023-11-07T11:33:13.209Z,10.40
2023-11-07T11:35:46.321Z,2.70
2023-11-07T11:38:21.278Z,3.70
2023-11-07T11:40:56.195Z,4.70
2023-11-07T11:43:29.579Z,4.00
2023-11-07T11:46:27.756Z,5.10
2023-11-07T11:49:10.059Z,2.70
2023-11-07T11:51:43.635Z,8.30
2023-11-07T11:54:17.800Z,4.00
2023-11-07T11:57:09.610Z,4.50
2023-11-07T11:59:58.338Z,4.50
2023-11-07T12:02:41.654Z,4.10
2023-11-07T12:05:19.788Z,6.00
2023-11-07T12:07:53.115Z,6.60
2023-11-07T12:10:28.487Z,6.10
2023-11-07T12:13:02.159Z,9.10
2023-11-07T12:15:35.142Z,6.10
2023-11-07T12:18:07.528Z,5.10
2023-11-07T12:20:45.024Z,4.50
2023-11-07T12:23:18.092Z,4.80
2023-11-07T12:25:53.587Z,3.60
2023-11-07T12:28:25.913Z,4.50
2023-11-07T12:30:59.226Z,6.90
2023-11-07T12:33:43.305Z,5.40
2023-11-07T12:36:17.415Z,9.10
2023-11-07T12:38:49.688Z,5.90
2023-11-07T12:41:22.078Z,10.50
2023-11-07T12:43:54.491Z,7.70
2023-11-07T12:46:28.839Z,6.50
2023-11-07T12:49:00.986Z,6.40
2023-11-07T12:51:33.363Z,7.90
2023-11-07T12:54:06.751Z,7.50
2023-11-07T12:56:45.012Z,7.90
2023-11-07T12:59:19.211Z,7.80
2023-11-07T13:01:51.482Z,7.80
2023-11-07T13:04:23.952Z,4.20
2023-11-07T13:06:57.995Z,4.00
2023-11-07T13:09:32.710Z,4.90
2023-11-07T13:12:12.182Z,3.20
2023-11-07T13:14:44.619Z,7.90
2023-11-07T13:17:16.773Z,3.30
2023-11-07T13:19:51.555Z,2.90
2023-11-07T13:22:24.761Z,4.90
2023-11-07T13:24:57.029Z,4.20
2023-11-07T13:27:29.039Z,3.80
2023-11-07T13:30:03.166Z,3.20
2023-11-07T13:32:35.767Z,5.80
2023-11-07T13:35:09.312Z,4.70
2023-11-07T13:37:41.525Z,5.90
2023-11-07T13:40:15.911Z,13.80
2023-11-07T13:42:48.193Z,11.10
2023-11-07T13:45:20.571Z,5.90
2023-11-07T13:47:52.920Z,6.30
2023-11-07T13:50:25.710Z,4.60
2023-11-07T13:52:59.894Z,5.40
2023-11-07T13:55:33.400Z,5.60
2023-11-07T13:58:05.622Z,5.00
2023-11-07T14:00:37.633Z,3.00
2023-11-07T14:03:09.905Z,3.50
2023-11-07T14:05:42.395Z,3.40
2023-11-07T14:08:15.903Z,3.20
2023-11-07T14:10:48.309Z,5.90
2023-11-07T14:13:21.069Z,3.80
2023-11-07T14:15:53.399Z,3.30
2023-11-07T14:18:27.964Z,5.90
2023-11-07T14:21:03.972Z,3.70
2023-11-07T14:23:36.860Z,3.80
2023-11-07T14:26:10.260Z,4.00
2023-11-07T14:28:50.877Z,5.40
2023-11-07T14:31:31.731Z,4.40
2023-11-07T14:34:04.746Z,1.80
2023-11-07T14:36:37.058Z,3.40
2023-11-07T14:39:14.110Z,3.40
2023-11-07T14:41:46.551Z,5.40
2023-11-07T14:44:18.679Z,1.90
2023-11-07T14:46:50.742Z,2.90
2023-11-07T14:49:23.033Z,2.50
2023-11-07T14:51:57.502Z,2.20
2023-11-07T14:54:29.557Z,3.90
2023-11-07T14:57:06.270Z,28.70
2023-11-07T14:59:39.010Z,31.90
2023-11-07T15:02:21.865Z,9.60
2023-11-07T15:04:57.946Z,5.40
2023-11-07T15:07:30.028Z,21.80
2023-11-07T15:10:02.402Z,12.30
2023-11-07T15:12:34.782Z,23.00
2023-11-07T15:15:08.894Z,5.10
2023-11-07T15:17:41.578Z,3.70
2023-11-07T15:20:14.811Z,4.00
2023-11-07T15:22:47.541Z,3.80
2023-11-07T15:25:22.332Z,5.40
2023-11-07T15:27:56.070Z,3.20
2023-11-07T15:30:29.285Z,2.70
2023-11-07T15:33:04.275Z,3.00
2023-11-07T15:35:40.756Z,3.40
2023-11-07T15:38:13.037Z,4.10
2023-11-07T15:40:45.555Z,2.60
2023-11-07T15:43:17.755Z,1.10
2023-11-07T15:45:50.048Z,5.40
2023-11-07T15:48:22.420Z,1.60
2023-11-07T15:50:54.972Z,2.10
2023-11-07T15:53:27.346Z,2.10
2023-11-07T15:55:59.820Z,8.40
2023-11-07T15:58:32.838Z,8.10
2023-11-07T16:01:06.969Z,12.40
2023-11-07T16:03:39.814Z,6.00
2023-11-07T16:06:17.042Z,4.80
2023-11-07T16:08:49.682Z,5.40
2023-11-07T16:11:21.915Z,10.50
2023-11-07T16:13:54.357Z,5.50
2023-11-07T16:16:27.618Z,4.80
2023-11-07T16:19:00.641Z,4.20
2023-11-07T16:21:33.306Z,5.50
2023-11-07T16:24:05.867Z,3.00
2023-11-07T16:26:41.460Z,2.50
2023-11-07T16:29:18.354Z,4.10
2023-11-07T16:31:50.918Z,9.20
2023-11-07T16:34:23.184Z,1.70
2023-11-07T16:36:56.322Z,2.10
2023-11-07T16:39:28.495Z,2.60
2023-11-07T16:42:32.396Z,1.90
2023-11-07T16:45:05.776Z,3.40
2023-11-07T16:47:38.143Z,5.10
2023-11-07T16:50:27.204Z,4.40
2023-11-07T16:52:59.459Z,1.70
2023-11-07T16:55:32.073Z,3.60
2023-11-07T16:58:05.276Z,6.00
2023-11-07T17:00:38.096Z,1.80
2023-11-07T17:03:11.471Z,3.20
2023-11-07T17:05:43.648Z,2.30
2023-11-07T17:08:16.149Z,2.10
2023-11-07T17:10:50.825Z,7.50
2023-11-07T17:13:23.187Z,5.50
2023-11-07T17:15:55.857Z,5.20
2023-11-07T17:18:28.324Z,4.10
2023-11-07T17:21:01.108Z,12.60
2023-11-07T17:23:33.710Z,4.90
2023-11-07T17:26:06.537Z,7.30
2023-11-07T17:28:38.744Z,11.20
2023-11-07T17:31:11.039Z,3.60
2023-11-07T17:33:43.536Z,6.50
2023-11-07T17:36:16.528Z,6.10
2023-11-07T17:38:49.098Z,6.70
2023-11-07T17:41:21.345Z,5.00
2023-11-07T17:43:53.623Z,5.60
2023-11-07T17:46:26.137Z,8.20
2023-11-07T17:48:58.735Z,7.40
2023-11-07T17:51:31.084Z,11.60
2023-11-07T17:54:03.479Z,11.90
2023-11-07T17:56:36.256Z,3.80
2023-11-07T17:59:13.028Z,3.60
2023-11-07T18:01:45.845Z,12.20
2023-11-07T18:04:18.205Z,18.10
2023-11-07T18:06:50.998Z,4.50
2023-11-07T18:09:23.855Z,9.40
2023-11-07T18:11:56.513Z,5.00
2023-11-07T18:14:30.111Z,87.60
2023-11-07T18:17:04.682Z,48.00
2023-11-07T18:19:38.741Z,24.10
2023-11-07T18:22:11.491Z,5.80
2023-11-07T18:24:45.066Z,3.00
2023-11-07T18:27:26.737Z,60.20
2023-11-07T18:30:00.683Z,7.10
2023-11-07T18:32:33.934Z,3.70
2023-11-07T18:35:07.469Z,2.70
2023-11-07T18:37:40.654Z,5.10
2023-11-07T18:40:15.097Z,8.70
2023-11-07T18:42:47.257Z,9.50
2023-11-07T18:45:19.707Z,8.80
2023-11-07T18:47:52.393Z,10.10
2023-11-07T18:50:26.278Z,9.60
2023-11-07T18:52:58.957Z,7.90
2023-11-07T18:55:31.117Z,10.30
2023-11-07T18:58:03.268Z,4.50
2023-11-07T19:00:39.858Z,9.30
2023-11-07T19:03:12.492Z,20.50
2023-11-07T19:05:45.109Z,36.40
2023-11-07T19:08:17.321Z,8.40
2023-11-07T19:10:49.965Z,7.90
2023-11-07T19:13:22.720Z,17.70
2023-11-07T19:15:56.193Z,5.80
2023-11-07T19:18:29.245Z,5.00
2023-11-07T19:21:03.782Z,4.90
2023-11-07T19:23:36.234Z,4.00
2023-11-07T19:26:08.709Z,8.10
2023-11-07T19:28:41.704Z,38.00
2023-11-07T19:31:13.844Z,277.60
2023-11-07T19:33:46.961Z,356.10
2023-11-07T19:36:19.819Z,383.90
2023-11-07T19:38:52.936Z,154.50
2023-11-07T19:41:25.530Z,497.90
2023-11-07T19:43:57.858Z,797.10
2023-11-07T19:46:30.586Z,565.70
2023-11-07T19:49:04.253Z,250.40
2023-11-07T19:51:39.203Z,261.20
2023-11-07T19:54:12.137Z,220.90
2023-11-07T19:56:44.857Z,497.60
2023-11-07T19:59:18.489Z,447.20
2023-11-07T20:01:50.908Z,316.00
2023-11-07T20:04:25.431Z,510.60
2023-11-07T20:06:58.107Z,556.10
2023-11-07T20:09:31.111Z,408.90
2023-11-07T20:12:05.531Z,121.10
2023-11-07T20:17:10.505Z,518.80
2023-11-07T20:19:43.889Z,837.60
2023-11-07T20:22:17.886Z,40.50
2023-11-07T20:24:50.159Z,31.90
2023-11-07T20:27:22.643Z,277.90
2023-11-07T20:29:55.303Z,322.00
2023-11-07T20:32:27.726Z,568.10
2023-11-07T20:35:00.727Z,11.20
2023-11-07T20:37:33.397Z,81.60
2023-11-07T20:40:08.009Z,14.50
2023-11-07T20:42:40.399Z,6.20
2023-11-07T20:45:14.100Z,7.00
2023-11-07T20:47:47.550Z,10.10
2023-11-07T20:50:19.994Z,4.10
2023-11-07T20:52:52.199Z,156.80
2023-11-07T20:55:26.848Z,70.70
2023-11-07T20:58:04.255Z,434.10
2023-11-07T21:00:38.342Z,771.50
2023-11-07T21:03:10.850Z,188.70
2023-11-07T21:05:42.903Z,143.20
2023-11-07T21:08:15.564Z,70.40
2023-11-07T21:10:48.065Z,467.70
2023-11-07T21:13:20.521Z,512.90
2023-11-07T21:15:52.856Z,123.30
2023-11-07T21:18:25.572Z,137.80
2023-11-07T21:20:57.918Z,196.70
2023-11-07T21:23:30.673Z,423.40
2023-11-07T21:26:03.205Z,182.20
2023-11-07T21:28:35.696Z,65.60
2023-11-07T21:31:08.048Z,90.90
2023-11-07T21:33:41.061Z,325.40
2023-11-07T21:36:14.178Z,133.10
2023-11-07T21:38:46.352Z,125.90
2023-11-07T21:41:19.781Z,315.10
2023-11-07T21:43:52.992Z,153.30
2023-11-07T21:46:25.537Z,142.70
2023-11-07T21:48:57.815Z,51.50
2023-11-07T21:51:30.071Z,473.70
2023-11-07T21:54:03.723Z,614.50
2023-11-07T21:56:36.293Z,307.00
2023-11-07T21:59:09.553Z,256.80
2023-11-07T22:01:41.625Z,125.60
2023-11-07T22:04:13.799Z,41.30
2023-11-07T22:06:45.834Z,37.80
2023-11-07T22:09:18.488Z,92.80
2023-11-07T22:11:50.698Z,85.10
2023-11-07T22:14:22.869Z,88.90
2023-11-07T22:16:55.049Z,60.30
2023-11-07T22:19:27.285Z,365.00
2023-11-07T22:21:59.986Z,612.60
2023-11-07T22:24:33.186Z,192.80
2023-11-07T22:27:05.802Z,559.60
2023-11-07T22:29:38.187Z,775.00
2023-11-07T22:32:11.778Z,58.30
2023-11-07T22:34:44.779Z,11.00
2023-11-07T22:37:17.336Z,72.60
2023-11-07T22:39:49.697Z,303.40
2023-11-07T22:42:21.840Z,578.20
2023-11-07T22:44:54.899Z,248.80
2023-11-07T22:47:27.390Z,80.70
2023-11-07T22:50:00.782Z,119.70
2023-11-07T22:52:33.212Z,279.00
2023-11-07T22:55:06.408Z,184.50
2023-11-07T22:57:38.512Z,170.20
2023-11-07T23:00:16.845Z,102.30
2023-11-07T23:02:49.634Z,147.80
2023-11-07T23:05:22.027Z,491.70
2023-11-07T23:07:55.907Z,299.50
2023-11-07T23:10:28.000Z,38.60
2023-11-07T23:13:00.208Z,726.00
2023-11-07T23:15:33.960Z,29.70
2023-11-07T23:18:07.032Z,146.90
2023-11-07T23:20:41.679Z,8.00
2023-11-07T23:23:13.864Z,48.10
2023-11-07T23:25:47.072Z,245.00
2023-11-07T23:28:19.500Z,171.70
2023-11-07T23:30:51.769Z,72.00
2023-11-07T23:33:24.606Z,26.20
2023-11-07T23:35:57.157Z,296.10
2023-11-07T23:38:29.235Z,3.60
2023-11-07T23:41:01.354Z,198.00
2023-11-07T23:43:33.586Z,309.50
2023-11-07T23:46:05.941Z,336.20
2023-11-07T23:48:41.296Z,615.00
2023-11-07T23:51:13.418Z,119.80
2023-11-07T23:53:45.507Z,302.90
2023-11-07T23:56:18.383Z,738.60
2023-11-07T23:58:50.611Z,3.60
